Time;durP1;ratioP1;P1;durP2;ratioP2;P2;SDS_P1;SDS_P2;PMS_P1;PMS_P2;Temp;Humidity;BMP_temperature;BMP_pressure;BME280_temperature;BME280_humidity;BME280_pressure;Samples;Min_cycle;Max_cycle;Signal;HPM_P1;HPM_P2
2023/03/12 07:35:04;;;;;;;1.63;1.57;;;7.70;99.90;9.40;100491.00;;;;6229417;22;1328211;-72
2023/03/12 07:37:30;;;;;;;2.13;1.90;;;7.90;99.90;9.20;100500.00;;;;6245205;23;20159;-72
2023/03/12 07:39:59;;;;;;;11.90;5.13;;;8.00;99.90;9.30;100491.00;;;;6271707;22;20150;-72
2023/03/12 07:42:28;;;;;;;4.27;3.97;;;8.00;99.90;8.90;100449.00;;;;6271597;22;20175;-72
2023/03/12 07:44:54;;;;;;;6.60;5.93;;;8.10;99.90;9.30;100505.00;;;;6246067;23;20158;-73
2023/03/12 07:47:30;;;;;;;9.27;4.60;;;8.20;99.90;9.20;100506.00;;;;6271697;22;20449;-72
2023/03/12 07:49:56;;;;;;;19.17;8.70;;;8.20;99.90;9.70;100520.00;;;;6220889;23;20154;-72
2023/03/12 07:52:22;;;;;;;14.43;6.80;;;8.30;99.90;9.30;100522.00;;;;6245546;23;20197;-72
2023/03/12 07:55:09;;;;;;;10.53;5.67;;;8.30;99.90;9.40;100528.00;;;;6271658;22;20181;-72
2023/03/12 07:57:36;;;;;;;13.17;7.47;;;8.40;99.90;9.70;100491.00;;;;6245507;23;20142;-72
2023/03/12 08:00:06;;;;;;;8.00;4.60;;;8.50;99.90;10.10;100521.00;;;;6245782;23;20139;-72
2023/03/12 08:02:36;;;;;;;18.30;8.60;;;8.60;99.90;10.20;100501.00;;;;6247284;22;20174;-72
2023/03/12 08:05:03;;;;;;;6.87;3.37;;;8.70;99.90;9.60;100497.00;;;;6246747;22;20155;-72
2023/03/12 08:07:31;;;;;;;12.33;6.50;;;8.70;99.90;9.80;100537.00;;;;6245412;23;20166;-71
2023/03/12 08:10:02;;;;;;;1.30;1.20;;;8.70;99.90;9.90;100535.00;;;;6245901;23;20236;-72
2023/03/12 08:12:34;;;;;;;7.43;4.90;;;8.70;99.90;10.30;100539.00;;;;6220434;23;20156;-71
2023/03/12 08:15:04;;;;;;;13.83;6.73;;;8.90;99.90;10.40;100535.00;;;;6221395;23;20243;-73
2023/03/12 08:17:32;;;;;;;10.80;5.07;;;8.90;99.90;10.20;100539.00;;;;6245643;23;20639;-72
2023/03/12 08:20:03;;;;;;;9.03;5.13;;;9.00;99.90;10.00;100537.00;;;;6245796;23;20155;-72
2023/03/12 08:22:29;;;;;;;6.80;4.60;;;9.00;99.90;10.30;100549.00;;;;6270593;22;20202;-71
2023/03/12 08:24:55;;;;;;;12.10;3.70;;;9.10;99.90;10.60;100540.00;;;;6245742;23;20153;-72
2023/03/12 08:27:24;;;;;;;6.30;3.77;;;9.20;99.90;10.40;100548.00;;;;6270700;22;20191;-72
2023/03/12 08:29:50;;;;;;;3.00;2.73;;;9.20;99.90;10.60;100541.00;;;;6245765;23;20711;-73
2023/03/12 08:32:16;;;;;;;26.40;8.43;;;9.40;99.90;10.80;100533.00;;;;6245447;23;20182;-72
2023/03/12 08:34:42;;;;;;;7.13;1.13;;;9.50;99.90;11.00;100534.00;;;;6219813;23;20164;-72
2023/03/12 08:37:08;;;;;;;19.57;5.33;;;9.60;99.90;11.00;100535.00;;;;6270486;22;20146;-72
2023/03/12 08:39:35;;;;;;;7.77;4.63;;;9.80;99.90;10.70;100551.00;;;;6247055;22;20232;-72
2023/03/12 08:42:23;;;;;;;3.03;1.23;;;9.80;99.90;11.40;100560.00;;;;6270779;22;20170;-73
2023/03/12 08:45:26;;;;;;;;;;;;;;;;;;;;;
2023/03/12 08:47:55;;;;;;;8.20;3.40;;;10.20;99.90;10.90;100567.00;;;;6224972;23;20560;-72
2023/03/12 08:50:28;;;;;;;18.47;5.57;;;10.00;99.90;11.60;100564.00;;;;6245394;23;20141;-72
2023/03/12 08:53:00;;;;;;;1.20;1.13;;;10.10;99.90;11.80;100559.00;;;;6270354;22;20172;-72
2023/03/12 08:55:26;;;;;;;6.97;4.40;;;10.10;99.90;11.80;100561.00;;;;6270888;22;20142;-72
2023/03/12 08:58:23;;;;;;;1.63;1.33;;;10.20;99.90;11.20;100562.00;;;;6270534;22;20138;-71
2023/03/12 09:00:54;;;;;;;18.43;3.10;;;10.20;99.90;11.30;100555.00;;;;6244390;23;20249;-72
2023/03/12 09:03:29;;;;;;;6.53;2.33;;;10.30;99.90;11.80;100567.00;;;;6246605;22;20296;-72
2023/03/12 09:06:12;;;;;;;8.47;3.80;;;10.40;99.90;11.30;100526.00;;;;6270116;22;20178;-72
2023/03/12 09:08:50;;;;;;;9.43;5.53;;;10.30;99.90;11.30;100567.00;;;;6245068;23;20157;-75
2023/03/12 09:11:19;;;;;;;5.03;1.50;;;10.30;99.90;11.40;100571.00;;;;6245677;23;20170;-73
2023/03/12 09:13:45;;;;;;;16.33;5.27;;;10.30;99.90;11.40;100562.00;;;;6220549;23;20582;-72
2023/03/12 09:16:23;;;;;;;6.93;2.60;;;10.40;99.90;11.50;100577.00;;;;6219072;23;20238;-73
2023/03/12 09:18:49;;;;;;;6.73;3.70;;;10.50;99.90;11.80;100576.00;;;;6246202;22;20643;-72
2023/03/12 09:21:16;;;;;;;4.53;2.03;;;10.60;99.90;11.20;100577.00;;;;6244840;23;20639;-75
2023/03/12 09:24:02;;;;;;;11.50;3.20;;;10.40;99.90;11.70;100583.00;;;;6270185;22;20169;-72
2023/03/12 09:26:32;;;;;;;24.17;1.73;;;10.50;99.90;11.90;100577.00;;;;6198358;23;20162;-73
2023/03/12 09:28:58;;;;;;;5.00;3.70;;;10.60;99.90;12.30;100568.00;;;;6244795;23;20272;-72
2023/03/12 09:31:27;;;;;;;6.27;2.03;;;10.70;99.90;12.00;100565.00;;;;6270806;22;20144;-74
2023/03/12 09:33:56;;;;;;;13.43;5.87;;;10.90;99.90;12.30;100576.00;;;;6269970;22;20155;-71
2023/03/12 09:36:22;;;;;;;12.17;3.13;;;11.00;99.90;12.70;100571.00;;;;6244926;23;20180;-72
2023/03/12 09:38:48;;;;;;;2.27;1.27;;;11.30;99.90;12.70;100547.00;;;;6244921;23;20650;-72
2023/03/12 09:41:22;;;;;;;12.40;4.23;;;11.30;99.90;13.10;100538.00;;;;6270703;22;20137;-72
2023/03/12 09:44:30;;;;;;;3.47;1.73;;;11.70;99.90;12.80;100588.00;;;;6246060;22;20622;-74
2023/03/12 09:47:30;;;;;;;1.70;1.60;;;11.70;99.90;12.80;100592.00;;;;6204422;23;20199;-75
2023/03/12 09:50:27;;;;;;;8.77;5.10;;;11.60;99.90;12.70;100594.00;;;;6244636;23;20148;-72
2023/03/12 09:53:26;;;;;;;2.93;0.70;;;11.60;99.90;12.40;100602.00;;;;6239000;23;20181;-74
2023/03/12 09:55:58;;;;;;;14.47;3.33;;;11.40;99.90;12.60;100565.00;;;;6244793;23;20165;-74
2023/03/12 09:58:37;;;;;;;1.90;1.80;;;11.40;99.90;13.00;100601.00;;;;6244963;23;20165;-74
2023/03/12 10:01:36;;;;;;;7.17;2.30;;;11.50;99.90;12.70;100610.00;;;;6244890;23;20151;-72
2023/03/12 10:04:44;;;;;;;14.23;2.83;;;11.50;99.90;13.60;100610.00;;;;6243970;23;20656;-72
2023/03/12 10:07:54;;;;;;;39.30;3.90;;;11.70;99.90;13.00;100608.00;;;;6244554;23;20172;-73
2023/03/12 10:11:16;;;;;;;0.43;0.43;;;11.80;99.90;13.30;100596.00;;;;6103958;23;20179;-73
2023/03/12 10:14:09;;;;;;;1.37;1.10;;;11.90;99.90;13.70;100601.00;;;;6112800;22;20306;-72
2023/03/12 10:17:25;;;;;;;14.60;5.03;;;12.00;99.90;12.80;100587.00;;;;6244546;23;20161;-72
2023/03/12 10:20:44;;;;;;;17.70;5.20;;;11.90;99.90;13.80;100596.00;;;;6244373;23;20525;-72
2023/03/12 10:33:48;;;;;;;2.43;1.53;;;12.30;99.90;13.70;100586.00;;;;5164319;27;21084;-72
2023/03/12 10:36:36;;;;;;;6.43;1.90;;;12.70;99.90;14.10;100568.00;;;;5126514;27;20662;-73
2023/03/12 10:39:02;;;;;;;17.63;4.87;;;13.00;99.90;14.20;100574.00;;;;5105530;28;20186;-73
2023/03/12 10:41:52;;;;;;;10.20;4.07;;;13.00;99.90;14.10;100588.00;;;;5121618;27;20188;-73
2023/03/12 10:44:39;;;;;;;7.73;1.33;;;12.90;99.90;14.50;100616.00;;;;5116405;27;20628;-73
2023/03/12 10:47:37;;;;;;;7.03;4.20;;;13.10;99.90;14.10;100620.00;;;;5133408;27;20630;-72
2023/03/12 10:50:22;;;;;;;12.37;3.60;;;13.10;99.90;13.50;100607.00;;;;5120019;27;20176;-73
2023/03/12 10:52:51;;;;;;;16.77;3.43;;;12.50;99.90;14.30;100634.00;;;;5146041;27;20664;-73
2023/03/12 10:56:04;;;;;;;8.93;2.83;;;12.90;99.90;14.60;100623.00;;;;5133098;27;20183;-73
2023/03/12 10:58:48;;;;;;;2.57;1.43;;;12.90;99.90;14.40;100643.00;;;;5127371;27;20233;-73
2023/03/12 11:01:23;;;;;;;0.10;0.10;;;13.10;99.90;15.10;100645.00;;;;5132835;27;20184;-73
2023/03/12 11:03:50;;;;;;;3.60;0.80;;;13.20;99.90;15.00;100654.00;;;;5129363;27;20191;-73
2023/03/12 11:06:28;;;;;;;2.93;0.90;;;13.30;99.90;13.80;100621.00;;;;5129859;27;20184;-73
2023/03/12 11:09:18;;;;;;;9.20;3.20;;;12.90;99.90;13.80;100634.00;;;;5106681;27;20180;-74
2023/03/12 11:11:50;;;;;;;4.27;2.43;;;13.00;99.90;14.50;100640.00;;;;5145729;27;20192;-73
2023/03/12 11:14:19;;;;;;;12.90;3.17;;;13.00;99.90;14.10;100648.00;;;;5132877;27;20186;-73
2023/03/12 11:16:48;;;;;;;11.40;2.60;;;13.00;99.90;14.00;100653.00;;;;5107156;27;20175;-73
2023/03/12 11:19:34;;;;;;;20.63;4.07;;;13.00;99.90;14.10;100624.00;;;;5133031;27;20188;-73
2023/03/12 11:22:14;;;;;;;12.53;4.67;;;13.00;99.90;14.10;100646.00;;;;5128629;28;20206;-73
2023/03/12 11:25:06;;;;;;;1.30;0.70;;;13.10;99.90;15.20;100630.00;;;;5121608;27;20175;-73
2023/03/12 11:27:58;;;;;;;3.83;1.27;;;13.30;99.90;15.10;100655.00;;;;5120877;27;20202;-73
2023/03/12 11:30:35;;;;;;;2.87;2.27;;;13.30;99.90;14.30;100660.00;;;;5103925;27;20243;-73
2023/03/12 11:33:09;;;;;;;5.63;2.50;;;13.30;99.90;14.40;100652.00;;;;5103324;27;20222;-73
2023/03/12 11:36:03;;;;;;;7.60;3.17;;;13.10;99.90;15.30;100652.00;;;;5137383;27;20175;-73
2023/03/12 11:38:58;;;;;;;1.03;1.03;;;13.40;99.90;14.90;100655.00;;;;5142718;27;20199;-73
2023/03/12 11:41:56;;;;;;;9.53;1.83;;;13.20;99.90;15.10;100661.00;;;;5145579;27;20185;-73
2023/03/12 11:45:04;;;;;;;2.43;0.90;;;13.30;99.90;15.10;100653.00;;;;5121176;27;20344;-73
2023/03/12 11:48:12;;;;;;;8.13;3.17;;;13.10;99.90;14.80;100672.00;;;;5109891;27;20525;-73
2023/03/12 11:51:41;;;;;;;8.57;3.57;;;13.40;99.90;14.60;100659.00;;;;5109183;27;20669;-73
2023/03/12 11:54:34;;;;;;;20.67;6.20;;;13.00;99.90;14.00;100651.00;;;;5041089;28;20293;-72
2023/03/12 11:57:32;;;;;;;3.57;2.03;;;12.80;99.90;15.30;100657.00;;;;5075621;27;20208;-74
2023/03/12 12:00:11;;;;;;;6.70;2.10;;;13.10;99.90;15.00;100667.00;;;;5103257;28;20181;-72
2023/03/12 12:03:19;;;;;;;11.83;4.30;;;13.30;99.90;15.00;100667.00;;;;5111728;28;20212;-73
2023/03/12 12:05:48;;;;;;;8.50;2.87;;;13.60;99.90;14.90;100644.00;;;;5097535;27;20194;-71
2023/03/12 12:08:41;;;;;;;10.77;4.93;;;13.50;99.90;15.10;100648.00;;;;5108025;28;20194;-72
2023/03/12 12:11:47;;;;;;;15.53;2.67;;;13.40;99.90;15.50;100666.00;;;;5122161;27;20175;-71
2023/03/12 12:14:28;;;;;;;3.20;2.97;;;13.60;99.90;15.60;100663.00;;;;5111843;27;20199;-72
2023/03/12 12:17:21;;;;;;;9.43;3.47;;;13.60;99.90;14.30;100637.00;;;;5113063;27;20594;-72
2023/03/12 12:20:10;;;;;;;1.37;1.27;;;13.20;99.90;15.80;100642.00;;;;5016403;28;20203;-71
2023/03/12 12:23:00;;;;;;;3.80;1.23;;;13.40;99.90;15.20;100646.00;;;;5092480;27;20195;-71
2023/03/12 12:26:23;;;;;;;19.67;3.43;;;13.50;99.90;14.90;100633.00;;;;5100979;27;20193;-74
2023/03/12 12:29:10;;;;;;;1.00;0.57;;;13.40;99.90;14.90;100641.00;;;;5133852;27;20637;-72
2023/03/12 12:31:58;;;;;;;6.10;2.53;;;13.30;99.90;14.50;100634.00;;;;5106149;28;20225;-72
2023/03/12 12:35:01;;;;;;;2.83;1.07;;;13.40;99.90;14.80;100606.00;;;;5093853;27;20190;-72
2023/03/12 12:37:48;;;;;;;17.13;3.77;;;13.10;99.90;15.20;100638.00;;;;5104562;27;20194;-71
2023/03/12 12:40:56;;;;;;;8.07;1.93;;;13.30;99.90;15.20;100631.00;;;;5107737;27;20181;-72
2023/03/12 12:43:38;;;;;;;12.40;2.50;;;13.60;99.90;14.30;100630.00;;;;5065719;28;20311;-72
2023/03/12 12:46:23;;;;;;;6.47;1.73;;;13.30;99.90;14.20;100635.00;;;;5115975;27;20182;-72
2023/03/12 12:49:00;;;;;;;9.10;2.70;;;13.10;99.90;13.80;100626.00;;;;5116803;27;20194;-71
2023/03/12 12:51:32;;;;;;;7.57;2.53;;;13.00;99.90;14.00;100626.00;;;;5117401;27;20208;-72
2023/03/12 12:54:21;;;;;;;2.47;1.43;;;12.90;99.90;14.80;100636.00;;;;5114249;27;20274;-71
2023/03/12 12:57:05;;;;;;;13.57;1.63;;;13.20;99.90;14.50;100621.00;;;;5073000;27;20191;-70
2023/03/12 13:00:18;;;;;;;7.30;1.73;;;13.00;99.90;14.00;100623.00;;;;5135388;27;20179;-72
2023/03/12 13:02:46;;;;;;;13.17;1.90;;;13.00;99.90;15.00;100615.00;;;;5130487;27;20279;-71
2023/03/12 13:06:10;;;;;;;1.10;1.00;;;13.20;99.90;14.80;100618.00;;;;5117244;27;20262;-72
2023/03/12 13:08:39;;;;;;;5.53;1.33;;;13.30;99.90;16.10;100634.00;;;;5108276;27;20195;-72
2023/03/12 13:11:38;;;;;;;5.20;1.63;;;13.70;99.90;15.20;100602.00;;;;5115607;27;20195;-71
2023/03/12 13:14:10;;;;;;;31.50;3.40;;;13.50;99.90;15.00;100598.00;;;;5089157;27;20243;-71
2023/03/12 13:16:42;;;;;;;6.07;1.23;;;13.50;99.90;15.60;100609.00;;;;5116931;27;20260;-72
2023/03/12 13:19:14;;;;;;;16.93;2.43;;;13.70;99.90;15.40;100601.00;;;;5085882;28;20190;-72
2023/03/12 13:22:23;;;;;;;3.40;1.07;;;13.70;99.90;14.80;100617.00;;;;5135426;27;20189;-72
2023/03/12 13:25:28;;;;;;;7.50;2.03;;;13.70;99.90;14.80;100622.00;;;;5054052;28;20183;-71
2023/03/12 13:28:28;;;;;;;4.23;1.77;;;13.40;99.90;14.50;100629.00;;;;5114380;27;20282;-72
2023/03/12 13:30:56;;;;;;;0.53;0.40;;;13.40;99.90;15.50;100603.00;;;;5114488;27;20262;-72
2023/03/12 13:33:47;;;;;;;6.40;2.03;;;13.50;99.90;15.20;100612.00;;;;5087439;27;20260;-72
2023/03/12 13:36:49;;;;;;;7.83;2.70;;;13.70;99.90;14.70;100633.00;;;;5105983;27;20192;-72
2023/03/12 13:39:15;;;;;;;9.50;1.63;;;13.50;99.90;15.50;100632.00;;;;5099174;27;20195;-71
2023/03/12 13:41:44;;;;;;;1.53;1.07;;;13.60;99.90;15.20;100599.00;;;;5134311;27;20610;-72
2023/03/12 13:44:22;;;;;;;8.27;1.37;;;13.60;99.90;14.90;100635.00;;;;5099040;28;20277;-73
2023/03/12 13:47:10;;;;;;;18.70;2.37;;;13.50;99.90;14.30;100620.00;;;;5131669;27;20177;-73
2023/03/12 13:50:09;;;;;;;5.53;2.43;;;13.20;99.90;14.80;100607.00;;;;5133549;27;20196;-72
2023/03/12 13:52:49;;;;;;;2.10;1.53;;;13.10;99.90;15.00;100625.00;;;;5112942;27;20208;-72
2023/03/12 13:55:36;;;;;;;4.87;1.37;;;13.30;99.90;15.80;100629.00;;;;5081783;28;20319;-72
2023/03/12 13:58:09;;;;;;;5.30;1.37;;;13.70;99.90;14.30;100618.00;;;;5100947;28;20542;-72
2023/03/12 14:00:49;;;;;;;5.57;2.03;;;13.30;99.90;14.40;100617.00;;;;5105767;28;20182;-72
2023/03/12 14:03:36;;;;;;;20.73;3.10;;;13.20;99.90;15.10;100624.00;;;;5114156;27;20670;-72
2023/03/12 14:06:08;;;;;;;6.63;1.73;;;13.40;99.90;14.10;100625.00;;;;5113342;27;20188;-72
2023/03/12 14:09:05;;;;;;;8.37;3.70;;;13.20;99.90;14.50;100641.00;;;;5134341;27;20184;-72
2023/03/12 14:11:45;;;;;;;3.50;2.27;;;13.30;99.90;14.50;100632.00;;;;5108477;27;20204;-73
2023/03/12 14:14:46;;;;;;;3.13;1.83;;;13.20;99.90;15.60;100620.00;;;;5134062;27;20220;-73
2023/03/12 14:17:23;;;;;;;2.60;1.57;;;13.50;99.90;14.30;100628.00;;;;5134017;27;20177;-72
2023/03/12 14:20:20;;;;;;;5.83;3.17;;;13.30;99.90;14.10;100628.00;;;;5116112;28;20221;-73
2023/03/12 14:22:57;;;;;;;15.10;4.43;;;13.10;99.90;15.20;100657.00;;;;5107570;28;20645;-72
2023/03/12 14:25:30;;;;;;;1.30;0.80;;;13.30;99.90;14.40;100637.00;;;;5113909;27;20188;-72
2023/03/12 14:28:04;;;;;;;14.27;2.73;;;13.00;99.90;14.20;100638.00;;;;5134009;27;20179;-72
2023/03/12 14:30:43;;;;;;;4.67;2.53;;;13.00;99.90;14.30;100632.00;;;;5115885;28;20524;-73
2023/03/12 14:33:13;;;;;;;8.40;2.77;;;13.10;99.90;14.70;100620.00;;;;5115556;28;20219;-73
2023/03/12 14:36:13;;;;;;;20.87;2.67;;;13.10;99.90;14.00;100625.00;;;;5085321;28;20266;-72
2023/03/12 14:38:50;;;;;;;13.03;3.67;;;13.00;99.90;14.30;100634.00;;;;5115785;28;20176;-72
2023/03/12 14:41:28;;;;;;;13.13;4.30;;;13.00;99.90;14.10;100616.00;;;;5110832;28;20219;-73
2023/03/12 14:44:24;;;;;;;2.33;1.60;;;12.90;99.90;15.10;100652.00;;;;5125438;28;20195;-72
2023/03/12 14:47:28;;;;;;;41.03;5.13;;;13.10;99.90;14.10;100651.00;;;;5079871;28;20249;-72
2023/03/12 14:50:36;;;;;;;6.73;2.20;;;13.20;99.90;14.10;100671.00;;;;5090346;28;20663;-72
2023/03/12 14:53:34;;;;;;;3.20;2.00;;;13.00;99.90;14.30;100651.00;;;;5093685;28;20211;-73
2023/03/12 14:56:29;;;;;;;8.90;1.30;;;12.90;99.90;14.30;100656.00;;;;5106115;28;20185;-72
2023/03/12 14:59:01;;;;;;;5.73;2.20;;;12.90;99.90;14.70;100658.00;;;;5080343;28;20179;-72
2023/03/12 15:01:38;;;;;;;0.70;0.70;;;13.00;99.90;14.40;100655.00;;;;5106060;28;20215;-72
2023/03/12 15:04:15;;;;;;;3.10;1.03;;;12.90;99.90;14.50;100628.00;;;;5099246;28;20582;-72
2023/03/12 15:06:50;;;;;;;6.50;1.93;;;13.00;99.90;14.00;100649.00;;;;5115587;28;20649;-73
2023/03/12 15:09:30;;;;;;;3.03;2.17;;;12.80;99.90;14.70;100656.00;;;;5106365;28;20180;-72
2023/03/12 15:12:00;;;;;;;1.17;1.00;;;12.90;99.90;14.40;100655.00;;;;5090882;28;20192;-72
2023/03/12 15:14:32;;;;;;;7.75;1.77;;;12.90;99.90;14.50;100636.00;;;;5101541;28;20428;-72
2023/03/12 15:17:05;;;;;;;1.50;1.23;;;12.90;99.90;14.80;100639.00;;;;5081121;28;20183;-71
2023/03/12 15:19:53;;;;;;;5.73;1.33;;;12.90;99.90;14.20;100625.00;;;;5113921;27;20194;-71
2023/03/12 15:22:26;;;;;;;4.57;1.33;;;12.80;99.90;14.20;100632.00;;;;5119436;27;20183;-72
2023/03/12 15:24:53;;;;;;;10.73;5.43;;;12.80;99.90;14.20;100600.00;;;;5118779;27;20215;-72
2023/03/12 15:27:27;;;;;;;7.57;2.00;;;12.70;99.90;14.10;100636.00;;;;5118890;27;20221;-72
2023/03/12 15:29:55;;;;;;;9.80;1.57;;;12.80;99.90;13.60;100627.00;;;;5108095;28;20248;-71
2023/03/12 15:32:25;;;;;;;8.20;2.90;;;12.60;99.90;13.70;100638.00;;;;5115108;27;20305;-72
2023/03/12 15:34:55;;;;;;;16.97;3.13;;;12.70;99.90;13.60;100633.00;;;;5090922;27;20199;-72
2023/03/12 15:37:33;;;;;;;14.47;2.20;;;12.60;99.90;13.70;100621.00;;;;5115509;28;20206;-72
2023/03/12 15:40:15;;;;;;;9.27;1.20;;;12.60;99.90;14.10;100623.00;;;;5130155;27;20183;-71
2023/03/12 15:42:45;;;;;;;3.70;1.07;;;12.70;99.90;14.70;100624.00;;;;5091804;27;20183;-72
2023/03/12 15:45:34;;;;;;;22.77;4.33;;;12.80;99.90;14.60;100603.00;;;;5105374;27;20186;-72
2023/03/12 15:48:35;;;;;;;6.13;2.33;;;12.90;99.90;14.20;100608.00;;;;5118882;27;20700;-72
2023/03/12 15:51:02;;;;;;;3.20;0.80;;;12.90;99.90;15.10;100597.00;;;;5130228;27;20179;-71
2023/03/12 15:53:33;;;;;;;4.00;1.03;;;12.90;99.90;13.60;100618.00;;;;5131649;27;20285;-72
2023/03/12 15:56:24;;;;;;;13.10;2.60;;;12.60;99.90;14.20;100627.00;;;;5087182;27;20184;-71
2023/03/12 15:59:39;;;;;;;13.67;2.73;;;12.80;99.90;14.30;100623.00;;;;5110081;28;20899;-73
2023/03/12 16:02:11;;;;;;;14.73;2.73;;;12.70;99.90;13.50;100611.00;;;;5103951;28;20209;-72
2023/03/12 16:04:43;;;;;;;5.43;1.30;;;12.40;99.90;13.80;100572.00;;;;5117481;27;20186;-72
2023/03/12 16:07:11;;;;;;;9.13;1.93;;;12.40;99.90;13.50;100613.00;;;;5104251;27;20233;-73
2023/03/12 16:09:37;;;;;;;2.80;1.87;;;12.40;99.90;13.50;100596.00;;;;5115277;27;20184;-73
2023/03/12 16:12:03;;;;;;;11.23;3.13;;;12.40;99.90;13.80;100599.00;;;;5117841;27;20215;-73
2023/03/12 16:14:35;;;;;;;10.37;2.07;;;12.40;99.90;13.60;100587.00;;;;5136563;27;20192;-74
2023/03/12 16:17:04;;;;;;;12.73;2.60;;;12.50;99.90;13.80;100595.00;;;;5116004;27;20183;-72
2023/03/12 16:19:33;;;;;;;11.47;2.43;;;12.40;99.90;13.40;100601.00;;;;5116499;27;20600;-75
2023/03/12 16:21:58;;;;;;;0.20;0.20;;;12.30;99.90;14.40;100593.00;;;;5117761;27;20194;-73
2023/03/12 16:24:27;;;;;;;11.47;1.97;;;12.40;99.90;13.60;100606.00;;;;5126144;27;20182;-73
2023/03/12 16:26:57;;;;;;;13.53;4.00;;;12.30;99.90;13.40;100601.00;;;;5117856;27;20648;-73
2023/03/12 16:29:33;;;;;;;17.97;3.60;;;12.30;99.90;13.40;100606.00;;;;5117534;27;20171;-75
2023/03/12 16:31:59;;;;;;;2.50;0.97;;;12.20;99.90;13.30;100612.00;;;;5117320;27;20299;-75
2023/03/12 16:34:27;;;;;;;12.43;2.83;;;12.10;99.90;13.20;100610.00;;;;5117475;27;20221;-73
2023/03/12 16:36:56;;;;;;;2.83;1.20;;;12.20;99.90;13.40;100576.00;;;;5110218;27;20187;-73
2023/03/12 16:39:22;;;;;;;11.13;3.70;;;12.10;99.90;13.50;100590.00;;;;5134748;27;20182;-75
2023/03/12 16:41:50;;;;;;;1.90;0.73;;;12.10;99.90;14.10;100614.00;;;;5085391;28;20698;-73
2023/03/12 16:44:20;;;;;;;15.30;2.67;;;12.20;99.90;13.10;100595.00;;;;5112936;27;20183;-73
2023/03/12 16:46:46;;;;;;;2.07;1.93;;;12.10;99.90;13.90;100607.00;;;;5116587;27;20679;-72
2023/03/12 16:49:18;;;;;;;0.40;0.40;;;12.20;99.90;14.00;100563.00;;;;5117371;27;20246;-74
2023/03/12 16:51:47;;;;;;;8.33;3.73;;;12.20;99.90;13.30;100595.00;;;;5117744;27;20236;-73
2023/03/12 16:54:18;;;;;;;3.90;1.47;;;12.10;99.90;13.80;100590.00;;;;5117593;27;20236;-75
2023/03/12 16:56:50;;;;;;;8.13;2.20;;;12.20;99.90;13.50;100586.00;;;;5115979;27;20187;-72
2023/03/12 16:59:27;;;;;;;6.10;2.67;;;12.20;99.90;13.40;100578.00;;;;5135702;27;20279;-75
2023/03/12 17:01:56;;;;;;;3.17;1.23;;;12.00;99.90;13.20;100593.00;;;;5117310;27;20194;-72
2023/03/12 17:04:25;;;;;;;4.07;2.40;;;12.00;99.90;13.10;100591.00;;;;5116801;27;20191;-73
2023/03/12 17:07:18;;;;;;;7.23;2.73;;;11.80;99.90;13.80;100563.00;;;;5117532;27;20197;-72
2023/03/12 17:09:44;;;;;;;5.93;1.53;;;12.00;99.90;14.00;100579.00;;;;5087634;28;20280;-73
2023/03/12 17:12:24;;;;;;;1.07;0.87;;;12.00;99.90;14.00;100591.00;;;;5116124;27;20284;-73
2023/03/12 17:14:53;;;;;;;3.93;2.03;;;12.10;99.90;14.00;100591.00;;;;5132732;27;20186;-73
2023/03/12 17:17:21;;;;;;;6.20;2.93;;;12.10;99.90;13.30;100590.00;;;;5117579;27;20227;-72
2023/03/12 17:19:51;;;;;;;2.33;1.60;;;11.90;99.90;12.90;100594.00;;;;5135253;27;20189;-73
2023/03/12 17:22:20;;;;;;;3.03;1.40;;;11.80;99.90;12.90;100578.00;;;;5134215;27;20189;-75
2023/03/12 17:24:46;;;;;;;5.93;2.20;;;11.80;99.90;13.40;100592.00;;;;5114376;27;20185;-73
2023/03/12 17:27:17;;;;;;;6.47;2.00;;;11.90;99.90;13.30;100591.00;;;;5117098;27;20231;-73
2023/03/12 17:29:46;;;;;;;2.20;1.17;;;11.90;99.90;13.40;100582.00;;;;5135144;27;20206;-73
2023/03/12 17:32:15;;;;;;;1.07;1.07;;;11.90;99.90;13.30;100566.00;;;;5116539;27;20211;-73
2023/03/12 17:34:53;;;;;;;1.97;1.33;;;11.80;99.90;13.40;100571.00;;;;5134438;27;20188;-72
2023/03/12 17:37:22;;;;;;;0.20;0.20;;;11.70;99.90;14.00;100587.00;;;;5135087;27;20270;-73
2023/03/12 17:39:50;;;;;;;6.93;2.90;;;11.90;99.90;14.10;100581.00;;;;5126976;27;20182;-73
2023/03/12 17:42:17;;;;;;;4.83;1.10;;;12.10;99.90;13.50;100580.00;;;;5112603;28;20181;-73
2023/03/12 17:44:43;;;;;;;4.70;1.70;;;12.00;99.90;12.90;100571.00;;;;5089055;27;20183;-73
2023/03/12 17:47:15;;;;;;;0.63;0.50;;;11.70;99.90;13.20;100571.00;;;;5102995;27;20698;-75
2023/03/12 17:49:46;;;;;;;2.80;1.47;;;11.70;99.90;13.00;100538.00;;;;5134388;27;20178;-72
2023/03/12 17:52:14;;;;;;;0.20;0.20;;;11.60;99.90;13.50;100565.00;;;;5116341;27;20217;-73
2023/03/12 17:54:40;;;;;;;0.20;0.20;;;11.60;99.90;13.10;100542.00;;;;5134378;27;20187;-74
2023/03/12 17:57:11;;;;;;;4.73;0.97;;;11.60;99.90;13.20;100551.00;;;;5134596;27;20660;-73
2023/03/12 17:59:39;;;;;;;0.50;0.50;;;11.70;99.90;14.30;100587.00;;;;5108330;27;20180;-72
2023/03/12 18:02:14;;;;;;;0.13;0.13;;;11.80;99.90;14.30;100558.00;;;;5115818;27;20197;-72
2023/03/12 18:04:43;;;;;;;6.37;1.93;;;12.00;99.90;14.20;100551.00;;;;5115784;27;20631;-72
2023/03/12 18:07:09;;;;;;;1.33;1.33;;;12.00;99.90;14.10;100581.00;;;;5116083;27;20214;-74
2023/03/12 18:09:35;;;;;;;0.20;0.20;;;11.90;99.90;14.20;100579.00;;;;5109839;28;20185;-75
2023/03/12 18:12:05;;;;;;;8.80;2.63;;;11.90;99.90;13.50;100577.00;;;;5107619;27;20197;-75
2023/03/12 18:14:31;;;;;;;0.10;0.10;;;11.80;99.90;13.90;100573.00;;;;5133919;27;20195;-74
2023/03/12 18:17:06;;;;;;;0.20;0.20;;;11.60;99.90;14.20;100588.00;;;;5115791;27;20192;-72
2023/03/12 18:19:32;;;;;;;0.20;0.20;;;11.80;99.90;14.30;100580.00;;;;5128608;27;20214;-72
2023/03/12 18:21:58;;;;;;;0.20;0.20;;;11.90;99.90;15.00;100588.00;;;;5134201;27;20668;-73
2023/03/12 18:24:24;;;;;;;0.10;0.10;;;12.10;99.90;14.20;100570.00;;;;5115462;28;20183;-72
2023/03/12 18:26:53;;;;;;;0.10;0.10;;;11.90;99.90;14.10;100571.00;;;;5106929;28;20173;-72
2023/03/12 18:29:19;;;;;;;0.20;0.20;;;11.80;99.90;14.70;100578.00;;;;5115514;27;20180;-72
2023/03/12 18:31:50;;;;;;;0.20;0.20;;;11.90;99.90;15.20;100553.00;;;;5095327;28;20214;-72
2023/03/12 18:34:22;;;;;;;0.30;0.30;;;12.10;99.90;15.80;100594.00;;;;5106747;28;20194;-72
2023/03/12 18:36:51;;;;;;;1.70;1.60;;;12.40;99.90;15.30;100596.00;;;;5134098;28;20177;-73
2023/03/12 18:39:17;;;;;;;0.40;0.40;;;12.50;99.90;14.90;100577.00;;;;5112317;28;20183;-73
2023/03/12 18:41:43;;;;;;;0.20;0.20;;;12.30;99.90;15.10;100567.00;;;;5098285;28;20263;-73
2023/03/12 18:44:09;;;;;;;0.20;0.20;;;12.30;99.90;14.50;100511.00;;;;5126532;28;20187;-73
2023/03/12 18:46:35;;;;;;;0.20;0.20;;;12.10;99.90;14.70;100545.00;;;;5133417;28;20186;-73
2023/03/12 18:49:33;;;;;;;0.30;0.30;;;11.90;99.90;15.00;100553.00;;;;5107531;28;20260;-75
2023/03/12 18:52:02;;;;;;;1.07;0.93;;;12.00;99.90;13.90;100534.00;;;;5102129;28;20262;-72
2023/03/12 18:54:38;;;;;;;1.63;1.53;;;12.00;99.90;15.00;100544.00;;;;5118043;27;20188;-72
2023/03/12 18:57:06;;;;;;;0.20;0.20;;;12.00;99.90;15.30;100544.00;;;;5138323;27;20178;-73
2023/03/12 18:59:44;;;;;;;0.20;0.20;;;12.20;99.90;14.40;100526.00;;;;5119183;27;20194;-73
2023/03/12 19:02:12;;;;;;;0.70;0.70;;;12.10;99.90;14.20;100520.00;;;;5124080;27;20253;-73
2023/03/12 19:04:38;;;;;;;0.33;0.33;;;11.90;99.90;14.20;100485.00;;;;5137860;27;20187;-73
2023/03/12 19:07:06;;;;;;;1.60;1.53;;;11.90;99.90;14.00;100513.00;;;;5110152;28;20185;-73
2023/03/12 19:09:32;;;;;;;0.20;0.20;;;11.80;99.90;13.60;100491.00;;;;5109960;27;20533;-73
2023/03/12 19:12:00;;;;;;;0.20;0.20;;;11.60;99.90;14.10;100501.00;;;;5119273;27;20667;-75
2023/03/12 19:14:27;;;;;;;1.17;0.80;;;11.60;99.90;13.50;100492.00;;;;5117732;27;20190;-72
2023/03/12 19:17:02;;;;;;;0.20;0.20;;;11.60;99.90;13.80;100491.00;;;;5119017;27;20186;-72
2023/03/12 19:19:28;;;;;;;0.40;0.40;;;11.50;99.90;14.40;100478.00;;;;5119748;27;20179;-72
2023/03/12 19:21:56;;;;;;;0.80;0.80;;;11.70;99.90;14.20;100474.00;;;;5118908;27;20179;-72